Time;durP1;ratioP1;P1;durP2;ratioP2;P2;SDS_P1;SDS_P2;PMS_P1;PMS_P2;Temp;Humidity;BMP_temperature;BMP_pressure;BME280_temperature;BME280_humidity;BME280_pressure;Samples;Min_cycle;Max_cycle;Signal;HPM_P1;HPM_P2
2022/10/28 00:00:51;;;;;;;;;;;23.20;46.50;;;;;;475085;251;1305;-53
2022/10/28 00:02:53;;;;;;;;;;;23.30;46.60;;;;;;474644;251;1238;-53
2022/10/28 00:04:54;;;;;;;;;;;23.30;46.60;;;;;;474669;251;1226;-53
2022/10/28 00:06:56;;;;;;;;;;;23.30;46.60;;;;;;474911;251;1227;-53
2022/10/28 00:08:57;;;;;;;;;;;23.30;46.60;;;;;;475064;251;1225;-53
2022/10/28 00:10:58;;;;;;;;;;;23.20;46.50;;;;;;474783;251;1237;-53
2022/10/28 00:12:59;;;;;;;;;;;23.20;46.60;;;;;;474742;251;1290;-53
2022/10/28 00:15:01;;;;;;;;;;;23.20;46.60;;;;;;475113;251;1253;-52
2022/10/28 00:17:02;;;;;;;;;;;23.30;46.60;;;;;;474730;251;2188;-54
2022/10/28 00:19:03;;;;;;;;;;;23.20;46.50;;;;;;474793;251;1117;-53
2022/10/28 00:21:05;;;;;;;;;;;23.30;46.60;;;;;;474700;251;1195;-53
2022/10/28 00:23:06;;;;;;;;;;;23.30;46.60;;;;;;474725;251;1339;-53
2022/10/28 00:25:07;;;;;;;;;;;23.30;46.60;;;;;;474787;251;1225;-53
2022/10/28 00:27:09;;;;;;;;;;;23.20;46.50;;;;;;474918;251;1352;-53
2022/10/28 00:29:10;;;;;;;;;;;23.30;46.60;;;;;;474673;251;1261;-53
2022/10/28 00:31:11;;;;;;;;;;;23.20;46.60;;;;;;475105;251;1213;-53
2022/10/28 00:33:13;;;;;;;;;;;23.20;46.60;;;;;;475087;251;1198;-53
2022/10/28 00:35:14;;;;;;;;;;;23.30;46.60;;;;;;475069;251;1180;-53
2022/10/28 00:37:15;;;;;;;;;;;23.30;46.50;;;;;;474929;251;2205;-53
2022/10/28 00:39:17;;;;;;;;;;;23.30;46.60;;;;;;474662;251;1308;-53
2022/10/28 00:41:18;;;;;;;;;;;23.30;46.60;;;;;;475065;251;1222;-53
2022/10/28 00:43:19;;;;;;;;;;;23.20;46.50;;;;;;474698;251;1211;-53
2022/10/28 00:45:21;;;;;;;;;;;23.30;46.60;;;;;;474640;251;1169;-53
2022/10/28 00:47:22;;;;;;;;;;;23.30;46.60;;;;;;474866;251;1299;-53
2022/10/28 00:49:23;;;;;;;;;;;23.20;46.50;;;;;;474676;251;1303;-53
2022/10/28 00:51:25;;;;;;;;;;;23.20;46.60;;;;;;475098;251;1248;-53
2022/10/28 00:53:26;;;;;;;;;;;23.20;46.50;;;;;;474695;251;1364;-53
2022/10/28 00:55:27;;;;;;;;;;;23.30;46.60;;;;;;474799;251;1453;-53
2022/10/28 00:57:29;;;;;;;;;;;23.20;46.60;;;;;;474885;251;2154;-53
2022/10/28 00:59:30;;;;;;;;;;;23.20;46.60;;;;;;474718;251;1240;-53
2022/10/28 01:01:31;;;;;;;;;;;23.30;46.60;;;;;;474991;251;1252;-53
2022/10/28 01:03:33;;;;;;;;;;;23.20;46.60;;;;;;475120;251;1125;-53
2022/10/28 01:05:34;;;;;;;;;;;23.30;46.50;;;;;;475055;251;1196;-53
2022/10/28 01:07:35;;;;;;;;;;;23.30;46.50;;;;;;474943;251;1222;-53
2022/10/28 01:09:36;;;;;;;;;;;23.30;46.60;;;;;;475090;251;1178;-53
2022/10/28 01:11:38;;;;;;;;;;;23.30;46.60;;;;;;474971;251;1267;-53
2022/10/28 01:13:39;;;;;;;;;;;23.20;46.60;;;;;;474781;251;1189;-53
2022/10/28 01:15:40;;;;;;;;;;;23.30;46.60;;;;;;474867;251;1216;-53
2022/10/28 01:17:43;;;;;;;;;;;23.30;46.50;;;;;;474750;251;2146;-53
2022/10/28 01:19:43;;;;;;;;;;;23.30;46.50;;;;;;474788;251;1297;-53
2022/10/28 01:21:45;;;;;;;;;;;23.30;46.50;;;;;;474584;251;1289;-53
2022/10/28 01:23:46;;;;;;;;;;;23.30;46.60;;;;;;474598;251;1299;-53
2022/10/28 01:25:47;;;;;;;;;;;23.20;46.60;;;;;;474617;251;1348;-53
2022/10/28 01:27:49;;;;;;;;;;;23.30;46.60;;;;;;474862;251;1424;-53
2022/10/28 01:29:50;;;;;;;;;;;23.30;46.50;;;;;;474630;251;1276;-53
2022/10/28 01:31:54;;;;;;;;;;;23.30;46.60;;;;;;475048;251;1212;-53
2022/10/28 01:33:55;;;;;;;;;;;23.30;46.50;;;;;;474739;251;1221;-53
2022/10/28 01:35:56;;;;;;;;;;;23.30;46.50;;;;;;474794;251;1641;-53
2022/10/28 01:37:58;;;;;;;;;;;23.30;46.60;;;;;;474812;251;2181;-53
2022/10/28 01:39:59;;;;;;;;;;;23.30;46.60;;;;;;474716;251;1190;-53
2022/10/28 01:42:00;;;;;;;;;;;23.30;46.60;;;;;;474574;251;1247;-53
2022/10/28 01:44:01;;;;;;;;;;;23.30;46.60;;;;;;474634;251;1242;-53
2022/10/28 01:46:03;;;;;;;;;;;23.30;46.50;;;;;;474688;251;1458;-53
2022/10/28 01:48:04;;;;;;;;;;;23.30;46.50;;;;;;474735;251;1651;-53
2022/10/28 01:50:05;;;;;;;;;;;23.30;46.50;;;;;;474640;251;1259;-53
2022/10/28 01:52:07;;;;;;;;;;;23.20;46.50;;;;;;474475;251;1348;-53
2022/10/28 01:54:08;;;;;;;;;;;23.30;46.60;;;;;;474714;251;1223;-53
2022/10/28 01:56:09;;;;;;;;;;;23.30;46.60;;;;;;474939;251;1341;-53
2022/10/28 01:58:11;;;;;;;;;;;23.20;46.60;;;;;;475067;251;2145;-53
2022/10/28 02:00:12;;;;;;;;;;;23.20;46.60;;;;;;475032;251;1172;-52
2022/10/28 02:02:14;;;;;;;;;;;23.30;46.70;;;;;;474989;251;1216;-53
2022/10/28 02:04:15;;;;;;;;;;;23.20;46.60;;;;;;475067;251;1262;-53
2022/10/28 02:06:16;;;;;;;;;;;23.20;46.60;;;;;;475067;251;1386;-53
2022/10/28 02:08:18;;;;;;;;;;;23.30;46.60;;;;;;474669;251;1218;-53
2022/10/28 02:10:19;;;;;;;;;;;23.20;46.70;;;;;;474957;251;1278;-53
2022/10/28 02:12:20;;;;;;;;;;;23.20;46.70;;;;;;475050;251;1180;-53
2022/10/28 02:14:22;;;;;;;;;;;23.30;46.60;;;;;;474643;251;1228;-53
2022/10/28 02:16:23;;;;;;;;;;;23.20;46.60;;;;;;474994;251;1222;-53
2022/10/28 02:18:24;;;;;;;;;;;23.20;46.60;;;;;;475054;251;2145;-53
2022/10/28 02:20:26;;;;;;;;;;;23.20;46.60;;;;;;475081;251;1327;-53
2022/10/28 02:22:27;;;;;;;;;;;23.30;46.60;;;;;;474762;251;1347;-53
2022/10/28 02:24:28;;;;;;;;;;;23.30;46.60;;;;;;474599;251;1383;-53
2022/10/28 02:26:30;;;;;;;;;;;23.30;46.60;;;;;;475054;251;1232;-53
2022/10/28 02:28:31;;;;;;;;;;;23.30;46.60;;;;;;474793;251;1360;-53
2022/10/28 02:30:32;;;;;;;;;;;23.20;46.60;;;;;;474872;251;1261;-53
2022/10/28 02:32:33;;;;;;;;;;;23.20;46.60;;;;;;474636;251;1349;-53
2022/10/28 02:34:35;;;;;;;;;;;23.30;46.60;;;;;;474772;251;1434;-53
2022/10/28 02:36:36;;;;;;;;;;;23.20;46.60;;;;;;474636;251;1346;-53
2022/10/28 02:38:38;;;;;;;;;;;23.30;46.70;;;;;;474844;251;2204;-53
2022/10/28 02:40:39;;;;;;;;;;;23.20;46.60;;;;;;474656;251;1258;-53
2022/10/28 02:42:40;;;;;;;;;;;23.30;46.70;;;;;;474628;251;1497;-53
2022/10/28 02:44:41;;;;;;;;;;;23.20;46.60;;;;;;475061;251;1280;-53
2022/10/28 02:46:43;;;;;;;;;;;23.20;46.60;;;;;;474670;251;1268;-53
2022/10/28 02:48:44;;;;;;;;;;;23.20;46.60;;;;;;474887;251;1222;-53
2022/10/28 02:50:45;;;;;;;;;;;23.20;46.70;;;;;;474979;251;1244;-53
2022/10/28 02:52:47;;;;;;;;;;;23.30;46.70;;;;;;474804;251;1220;-52
2022/10/28 02:54:48;;;;;;;;;;;23.30;46.60;;;;;;474705;251;1330;-53
2022/10/28 02:56:49;;;;;;;;;;;23.20;46.60;;;;;;475068;251;1259;-53
2022/10/28 02:58:51;;;;;;;;;;;23.20;46.60;;;;;;474806;251;2204;-53
2022/10/28 03:00:52;;;;;;;;;;;23.30;46.60;;;;;;474672;251;1333;-53
2022/10/28 03:02:53;;;;;;;;;;;23.20;46.60;;;;;;474723;251;1237;-53
2022/10/28 03:04:55;;;;;;;;;;;23.20;46.60;;;;;;474651;251;1305;-53
2022/10/28 03:06:56;;;;;;;;;;;23.20;46.60;;;;;;474700;251;1252;-53
2022/10/28 03:08:57;;;;;;;;;;;23.20;46.50;;;;;;474809;251;1282;-53
2022/10/28 03:10:59;;;;;;;;;;;23.20;46.60;;;;;;474901;251;1230;-53
2022/10/28 03:13:00;;;;;;;;;;;23.20;46.60;;;;;;474788;251;1235;-53
2022/10/28 03:15:02;;;;;;;;;;;23.20;46.70;;;;;;474674;251;1211;-53
2022/10/28 03:17:03;;;;;;;;;;;23.20;46.60;;;;;;475100;251;2093;-53
2022/10/28 03:19:04;;;;;;;;;;;23.20;46.60;;;;;;475109;251;2160;-53
2022/10/28 03:21:06;;;;;;;;;;;23.20;46.70;;;;;;474949;251;1235;-53
2022/10/28 03:23:07;;;;;;;;;;;23.20;46.70;;;;;;474736;251;1357;-53
2022/10/28 03:25:08;;;;;;;;;;;23.20;46.70;;;;;;474736;251;1254;-53
2022/10/28 03:27:09;;;;;;;;;;;23.20;46.70;;;;;;475092;251;1253;-53
2022/10/28 03:29:11;;;;;;;;;;;23.20;46.70;;;;;;474981;251;1191;-53
2022/10/28 03:31:14;;;;;;;;;;;23.20;46.80;;;;;;474922;251;1184;-53
2022/10/28 03:33:14;;;;;;;;;;;23.20;46.70;;;;;;475016;251;2166;-53
2022/10/28 03:35:15;;;;;;;;;;;23.20;46.70;;;;;;474658;251;1271;-53
2022/10/28 03:37:16;;;;;;;;;;;23.20;46.80;;;;;;474891;251;1188;-53
2022/10/28 03:39:17;;;;;;;;;;;23.20;46.70;;;;;;474723;251;2129;-53
2022/10/28 03:41:19;;;;;;;;;;;23.20;46.60;;;;;;474678;251;1204;-52
2022/10/28 03:43:20;;;;;;;;;;;23.20;46.70;;;;;;474662;251;1297;-53
2022/10/28 03:45:21;;;;;;;;;;;23.20;46.70;;;;;;474685;251;1214;-53
2022/10/28 03:47:23;;;;;;;;;;;23.20;46.70;;;;;;475089;251;1196;-53
2022/10/28 03:49:24;;;;;;;;;;;23.20;46.60;;;;;;474665;251;1219;-53
2022/10/28 03:51:25;;;;;;;;;;;23.20;46.60;;;;;;474846;251;1221;-52
2022/10/28 03:53:27;;;;;;;;;;;23.20;46.60;;;;;;475035;251;1304;-53
2022/10/28 03:55:28;;;;;;;;;;;23.20;46.60;;;;;;474705;251;1277;-53
2022/10/28 03:57:29;;;;;;;;;;;23.20;46.70;;;;;;475011;251;1201;-53
2022/10/28 03:59:31;;;;;;;;;;;23.20;46.70;;;;;;474883;251;2205;-53
2022/10/28 04:01:32;;;;;;;;;;;23.20;46.60;;;;;;475078;251;1207;-52
2022/10/28 04:03:33;;;;;;;;;;;23.20;46.70;;;;;;475044;251;1308;-53
2022/10/28 04:05:35;;;;;;;;;;;23.20;46.70;;;;;;474909;251;1241;-53
2022/10/28 04:07:36;;;;;;;;;;;23.20;46.70;;;;;;474719;251;1191;-53
2022/10/28 04:09:37;;;;;;;;;;;23.20;46.70;;;;;;474607;251;1224;-53
2022/10/28 04:11:39;;;;;;;;;;;23.20;46.60;;;;;;474763;251;1258;-53
2022/10/28 04:13:40;;;;;;;;;;;23.20;46.60;;;;;;474738;251;1205;-53
2022/10/28 04:15:41;;;;;;;;;;;23.20;46.60;;;;;;475019;251;1263;-53
2022/10/28 04:17:42;;;;;;;;;;;23.20;46.70;;;;;;474762;251;1265;-53
2022/10/28 04:19:44;;;;;;;;;;;23.20;46.70;;;;;;474549;251;2193;-53
2022/10/28 04:21:45;;;;;;;;;;;23.20;46.70;;;;;;474587;251;1203;-53
2022/10/28 04:23:46;;;;;;;;;;;23.20;46.70;;;;;;474693;251;1270;-53
2022/10/28 04:25:48;;;;;;;;;;;23.20;46.70;;;;;;474653;251;1316;-52
2022/10/28 04:27:49;;;;;;;;;;;23.20;46.70;;;;;;474733;251;1216;-53
2022/10/28 04:29:50;;;;;;;;;;;23.20;46.70;;;;;;474552;251;1210;-52
2022/10/28 04:31:52;;;;;;;;;;;23.20;46.70;;;;;;474458;251;1289;-53
2022/10/28 04:33:53;;;;;;;;;;;23.20;46.70;;;;;;474442;251;2079;-53
2022/10/28 04:35:54;;;;;;;;;;;23.20;46.70;;;;;;474981;251;1248;-53
2022/10/28 04:37:56;;;;;;;;;;;23.20;46.70;;;;;;474829;251;1220;-53
2022/10/28 04:39:57;;;;;;;;;;;23.20;46.70;;;;;;474656;251;2117;-53
2022/10/28 04:41:58;;;;;;;;;;;23.20;46.70;;;;;;474858;251;1289;-53
2022/10/28 04:44:00;;;;;;;;;;;23.20;46.60;;;;;;474477;251;1304;-53
2022/10/28 04:46:04;;;;;;;;;;;23.20;46.60;;;;;;474550;251;1216;-53
2022/10/28 04:48:03;;;;;;;;;;;23.20;46.60;;;;;;474435;251;2033;-53
2022/10/28 04:50:04;;;;;;;;;;;23.20;46.70;;;;;;475063;251;1242;-53
2022/10/28 04:52:05;;;;;;;;;;;23.20;46.70;;;;;;474874;251;1292;-53
2022/10/28 04:54:07;;;;;;;;;;;23.20;46.70;;;;;;474703;251;1208;-52
2022/10/28 04:56:08;;;;;;;;;;;23.20;46.70;;;;;;474626;251;1194;-53
2022/10/28 04:58:09;;;;;;;;;;;23.20;46.70;;;;;;474610;251;2200;-53
2022/10/28 05:00:11;;;;;;;;;;;23.20;46.70;;;;;;474840;251;1264;-53
2022/10/28 05:02:12;;;;;;;;;;;23.20;46.70;;;;;;474587;251;1257;-53
2022/10/28 05:04:13;;;;;;;;;;;23.20;46.80;;;;;;474773;251;1244;-53
2022/10/28 05:06:15;;;;;;;;;;;23.20;46.80;;;;;;475065;251;1235;-53
2022/10/28 05:08:16;;;;;;;;;;;23.20;46.80;;;;;;475056;251;1166;-53
2022/10/28 05:10:17;;;;;;;;;;;23.20;46.80;;;;;;474804;251;1237;-53
2022/10/28 05:12:18;;;;;;;;;;;23.10;46.70;;;;;;474844;251;1193;-53
2022/10/28 05:14:20;;;;;;;;;;;23.20;46.70;;;;;;474516;251;1260;-53
2022/10/28 05:16:21;;;;;;;;;;;23.20;46.70;;;;;;474804;251;1198;-53
2022/10/28 05:18:22;;;;;;;;;;;23.20;46.70;;;;;;474655;251;2158;-53
2022/10/28 05:20:24;;;;;;;;;;;23.20;46.70;;;;;;474662;251;1240;-53
2022/10/28 05:22:25;;;;;;;;;;;23.20;46.70;;;;;;474512;251;1235;-53
2022/10/28 05:24:26;;;;;;;;;;;23.20;46.70;;;;;;474631;251;1501;-53
2022/10/28 05:26:28;;;;;;;;;;;23.20;46.70;;;;;;474697;251;1306;-53
2022/10/28 05:28:29;;;;;;;;;;;23.20;46.80;;;;;;474841;251;1441;-53
2022/10/28 05:30:30;;;;;;;;;;;23.20;46.70;;;;;;475016;251;1234;-53
2022/10/28 05:32:32;;;;;;;;;;;23.20;46.70;;;;;;474876;251;1674;-53
2022/10/28 05:34:33;;;;;;;;;;;23.20;46.70;;;;;;474689;251;1191;-53
2022/10/28 05:36:34;;;;;;;;;;;23.20;46.60;;;;;;474558;251;1333;-53
2022/10/28 05:38:36;;;;;;;;;;;23.20;46.70;;;;;;474554;251;2197;-53
2022/10/28 05:40:37;;;;;;;;;;;23.20;46.70;;;;;;474510;251;1209;-53
2022/10/28 05:42:38;;;;;;;;;;;23.20;46.70;;;;;;475002;251;1348;-53
2022/10/28 05:44:40;;;;;;;;;;;23.20;46.70;;;;;;474635;251;1365;-53
2022/10/28 05:46:41;;;;;;;;;;;23.20;46.70;;;;;;474599;251;1296;-53
2022/10/28 05:48:42;;;;;;;;;;;23.20;46.70;;;;;;474516;251;1248;-53
2022/10/28 05:50:44;;;;;;;;;;;23.20;46.60;;;;;;474784;251;1346;-53
2022/10/28 05:52:45;;;;;;;;;;;23.20;46.60;;;;;;474490;251;1254;-53
2022/10/28 05:54:46;;;;;;;;;;;23.20;46.60;;;;;;474607;251;1263;-53
2022/10/28 05:56:48;;;;;;;;;;;23.20;46.60;;;;;;474529;247;1450;-53
2022/10/28 05:58:49;;;;;;;;;;;23.20;46.60;;;;;;474637;251;2149;-53
2022/10/28 06:00:50;;;;;;;;;;;23.20;46.70;;;;;;474800;251;1180;-52
2022/10/28 06:02:51;;;;;;;;;;;23.20;46.60;;;;;;474552;251;1254;-53
2022/10/28 06:04:53;;;;;;;;;;;23.20;46.60;;;;;;474503;251;1370;-53
2022/10/28 06:06:54;;;;;;;;;;;23.20;46.60;;;;;;474333;251;1809;-52
2022/10/28 06:08:56;;;;;;;;;;;23.20;46.60;;;;;;474263;251;1179;-53
2022/10/28 06:10:57;;;;;;;;;;;23.20;46.60;;;;;;474129;251;1258;-52
2022/10/28 06:12:58;;;;;;;;;;;23.20;46.50;;;;;;474070;251;1279;-53
2022/10/28 06:15:00;;;;;;;;;;;23.20;46.50;;;;;;474055;251;1245;-53
2022/10/28 06:17:01;;;;;;;;;;;23.20;46.50;;;;;;474175;251;1239;-52
2022/10/28 06:19:02;;;;;;;;;;;23.20;46.40;;;;;;474066;251;2170;-53
2022/10/28 06:21:04;;;;;;;;;;;23.20;46.50;;;;;;474108;251;1285;-53
2022/10/28 06:23:05;;;;;;;;;;;23.30;46.50;;;;;;474012;251;1337;-53
2022/10/28 06:25:06;;;;;;;;;;;23.30;46.40;;;;;;474076;251;1236;-53
2022/10/28 06:27:08;;;;;;;;;;;23.30;46.40;;;;;;474101;251;1394;-53
2022/10/28 06:29:09;;;;;;;;;;;23.20;46.30;;;;;;474069;251;1575;-52
2022/10/28 06:31:10;;;;;;;;;;;23.30;46.40;;;;;;474117;251;1181;-53
2022/10/28 06:33:12;;;;;;;;;;;23.30;46.40;;;;;;474091;251;1275;-53
2022/10/28 06:35:13;;;;;;;;;;;23.30;46.30;;;;;;473909;251;1511;-52
2022/10/28 06:37:14;;;;;;;;;;;23.30;46.30;;;;;;474064;251;1393;-53
2022/10/28 06:39:16;;;;;;;;;;;23.30;46.30;;;;;;474270;251;2165;-53
2022/10/28 06:41:17;;;;;;;;;;;23.30;46.30;;;;;;474029;251;1392;-53
2022/10/28 06:43:18;;;;;;;;;;;23.30;46.30;;;;;;474132;251;1265;-53
2022/10/28 06:45:19;;;;;;;;;;;23.30;46.30;;;;;;474094;251;1690;-53
2022/10/28 06:47:21;;;;;;;;;;;23.30;46.30;;;;;;474143;251;1268;-53
2022/10/28 06:49:23;;;;;;;;;;;23.20;46.20;;;;;;474087;251;1200;-53
2022/10/28 06:51:24;;;;;;;;;;;23.30;46.20;;;;;;474310;251;1166;-53
2022/10/28 06:53:25;;;;;;;;;;;23.30;46.20;;;;;;474230;251;1298;-53
2022/10/28 06:55:26;;;;;;;;;;;23.30;46.20;;;;;;474248;251;1451;-53
2022/10/28 06:57:28;;;;;;;;;;;23.30;46.20;;;;;;474288;251;1216;-53
2022/10/28 06:59:29;;;;;;;;;;;23.30;46.20;;;;;;474539;251;2200;-53
2022/10/28 07:01:30;;;;;;;;;;;23.30;46.20;;;;;;474290;251;1452;-53
2022/10/28 07:03:32;;;;;;;;;;;23.30;46.20;;;;;;474349;251;1140;-53
2022/10/28 07:05:33;;;;;;;;;;;23.30;46.20;;;;;;474374;251;1076;-53
2022/10/28 07:07:36;;;;;;;;;;;23.30;46.20;;;;;;474325;251;1088;-53
2022/10/28 07:09:38;;;;;;;;;;;23.30;46.20;;;;;;474467;251;2160;-52
2022/10/28 07:11:38;;;;;;;;;;;23.30;46.10;;;;;;474216;251;2058;-53
2022/10/28 07:13:39;;;;;;;;;;;23.30;46.20;;;;;;474114;251;1195;-53
2022/10/28 07:15:41;;;;;;;;;;;23.30;46.20;;;;;;474135;251;1211;-53
2022/10/28 07:17:42;;;;;;;;;;;23.30;46.20;;;;;;474818;251;1246;-52
2022/10/28 07:19:43;;;;;;;;;;;23.30;46.10;;;;;;474490;251;2161;-53
2022/10/28 07:21:45;;;;;;;;;;;23.30;46.10;;;;;;474313;251;1463;-52
2022/10/28 07:23:46;;;;;;;;;;;23.30;46.10;;;;;;474109;246;1390;-53
2022/10/28 07:25:48;;;;;;;;;;;23.30;46.10;;;;;;473987;251;1251;-53
2022/10/28 07:27:49;;;;;;;;;;;23.30;46.10;;;;;;474150;251;1331;-53
2022/10/28 07:29:51;;;;;;;;;;;23.30;46.10;;;;;;473910;251;1307;-53
2022/10/28 07:31:52;;;;;;;;;;;23.30;46.10;;;;;;474050;251;1274;-54
2022/10/28 07:33:53;;;;;;;;;;;23.30;46.10;;;;;;474130;251;1183;-52
2022/10/28 07:35:55;;;;;;;;;;;23.30;46.10;;;;;;474087;251;1234;-53
2022/10/28 07:37:56;;;;;;;;;;;23.30;46.10;;;;;;473937;251;1243;-53
2022/10/28 07:39:57;;;;;;;;;;;23.30;46.10;;;;;;473991;251;2201;-53
2022/10/28 07:42:00;;;;;;;;;;;23.30;46.20;;;;;;474090;251;1192;-53
2022/10/28 07:44:00;;;;;;;;;;;23.30;46.10;;;;;;474219;251;2028;-53
2022/10/28 07:46:02;;;;;;;;;;;23.30;46.10;;;;;;474551;251;1127;-53
2022/10/28 07:48:03;;;;;;;;;;;23.30;46.10;;;;;;474280;251;1037;-53
2022/10/28 07:50:04;;;;;;;;;;;23.30;46.10;;;;;;474534;251;1194;-52
2022/10/28 07:52:06;;;;;;;;;;;23.30;46.10;;;;;;474323;251;1459;-53
2022/10/28 07:54:07;;;;;;;;;;;23.30;46.10;;;;;;474156;251;1374;-52
2022/10/28 07:56:09;;;;;;;;;;;23.30;46.10;;;;;;474003;251;1342;-53
2022/10/28 07:58:10;;;;;;;;;;;23.30;46.10;;;;;;474240;251;1261;-53
2022/10/28 08:00:11;;;;;;;;;;;23.30;46.20;;;;;;474015;251;2165;-53
2022/10/28 08:02:13;;;;;;;;;;;23.30;46.20;;;;;;473972;251;1259;-53
2022/10/28 08:04:14;;;;;;;;;;;23.30;46.20;;;;;;473823;251;1292;-52
2022/10/28 08:06:16;;;;;;;;;;;23.30;46.10;;;;;;473824;251;1246;-53
2022/10/28 08:08:16;;;;;;;;;;;23.30;46.20;;;;;;473892;251;2233;-53
2022/10/28 08:10:18;;;;;;;;;;;23.30;46.10;;;;;;474164;251;1242;-53
2022/10/28 08:12:19;;;;;;;;;;;23.30;46.10;;;;;;474441;251;1205;-51
2022/10/28 08:14:20;;;;;;;;;;;23.30;46.10;;;;;;473802;251;2052;-52
2022/10/28 08:16:22;;;;;;;;;;;23.30;46.10;;;;;;474560;251;1082;-53
2022/10/28 08:18:23;;;;;;;;;;;23.30;46.20;;;;;;474190;251;1120;-53
2022/10/28 08:20:24;;;;;;;;;;;23.30;46.10;;;;;;474524;251;2222;-53
2022/10/28 08:22:26;;;;;;;;;;;23.40;46.10;;;;;;474143;251;1244;-53
2022/10/28 08:24:27;;;;;;;;;;;23.40;46.10;;;;;;473913;251;1223;-52
2022/10/28 08:26:29;;;;;;;;;;;23.40;46.20;;;;;;474107;251;1209;-53
2022/10/28 08:28:30;;;;;;;;;;;23.30;46.10;;;;;;474093;251;1224;-53
2022/10/28 08:30:31;;;;;;;;;;;23.30;46.10;;;;;;473983;251;1620;-53
2022/10/28 08:32:33;;;;;;;;;;;23.30;46.10;;;;;;474126;251;1293;-53
2022/10/28 08:34:34;;;;;;;;;;;23.30;46.10;;;;;;474094;251;1340;-54
2022/10/28 08:36:35;;;;;;;;;;;23.40;46.10;;;;;;473998;251;1197;-52
2022/10/28 08:38:37;;;;;;;;;;;23.30;46.10;;;;;;474068;251;1309;-52
2022/10/28 08:40:38;;;;;;;;;;;23.40;46.10;;;;;;473794;251;2165;-52
2022/10/28 08:42:39;;;;;;;;;;;23.40;46.20;;;;;;473988;251;1223;-53
2022/10/28 08:44:40;;;;;;;;;;;23.40;46.10;;;;;;473975;251;1291;-53
2022/10/28 08:46:42;;;;;;;;;;;23.40;46.10;;;;;;474042;251;1226;-53
2022/10/28 08:48:43;;;;;;;;;;;23.40;46.10;;;;;;474052;251;1165;-53
2022/10/28 08:50:45;;;;;;;;;;;23.40;46.10;;;;;;474078;251;1228;-53
2022/10/28 08:52:46;;;;;;;;;;;23.40;46.10;;;;;;474037;251;1217;-52
2022/10/28 08:54:49;;;;;;;;;;;23.40;46.10;;;;;;474678;251;1244;-53
2022/10/28 08:56:49;;;;;;;;;;;23.40;46.10;;;;;;474177;251;2228;-53
2022/10/28 08:58:53;;;;;;;;;;;23.30;46.10;;;;;;474080;251;1268;-53
2022/10/28 09:00:51;;;;;;;;;;;23.40;46.20;;;;;;473909;251;2217;-52
2022/10/28 09:02:53;;;;;;;;;;;23.40;46.10;;;;;;474096;251;1185;-53
2022/10/28 09:04:54;;;;;;;;;;;23.40;46.20;;;;;;474203;251;1152;-53
2022/10/28 09:06:55;;;;;;;;;;;23.40;46.10;;;;;;474125;251;1122;-53
2022/10/28 09:08:57;;;;;;;;;;;23.40;46.10;;;;;;474240;251;1103;-53
2022/10/28 09:10:58;;;;;;;;;;;23.40;46.10;;;;;;474123;251;2235;-53
2022/10/28 09:12:59;;;;;;;;;;;23.40;46.10;;;;;;474110;251;1143;-53
2022/10/28 09:15:01;;;;;;;;;;;23.40;46.10;;;;;;474186;251;1190;-52
2022/10/28 09:17:02;;;;;;;;;;;23.40;46.20;;;;;;474194;251;1162;-52
2022/10/28 09:19:03;;;;;;;;;;;23.40;46.10;;;;;;474104;251;1212;-53
2022/10/28 09:21:05;;;;;;;;;;;23.40;46.10;;;;;;474077;251;2209;-53
2022/10/28 09:23:06;;;;;;;;;;;23.40;46.10;;;;;;474181;251;1250;-53
2022/10/28 09:25:08;;;;;;;;;;;23.40;46.10;;;;;;474193;251;1214;-52
2022/10/28 09:27:09;;;;;;;;;;;23.40;46.10;;;;;;474182;251;1360;-53
2022/10/28 09:29:10;;;;;;;;;;;23.40;46.10;;;;;;474543;251;1267;-53
2022/10/28 09:31:12;;;;;;;;;;;23.40;46.20;;;;;;474320;251;1278;-53
2022/10/28 09:33:13;;;;;;;;;;;23.40;46.20;;;;;;474344;251;1199;-53
2022/10/28 09:35:14;;;;;;;;;;;23.40;46.20;;;;;;474323;251;1272;-52
2022/10/28 09:37:16;;;;;;;;;;;23.40;46.20;;;;;;474391;251;1331;-52
2022/10/28 09:39:17;;;;;;;;;;;23.40;46.20;;;;;;474514;251;1242;-53
2022/10/28 09:41:18;;;;;;;;;;;23.40;46.20;;;;;;473527;251;2208;-53
2022/10/28 09:43:20;;;;;;;;;;;23.40;46.20;;;;;;474326;251;1194;-53
2022/10/28 09:45:21;;;;;;;;;;;23.40;46.20;;;;;;474255;251;1612;-53
2022/10/28 09:47:22;;;;;;;;;;;23.40;46.20;;;;;;474281;251;1605;-53
2022/10/28 09:49:23;;;;;;;;;;;23.40;46.10;;;;;;474369;251;1247;-53
2022/10/28 09:51:25;;;;;;;;;;;23.40;46.10;;;;;;474065;251;1451;-52
2022/10/28 09:53:26;;;;;;;;;;;23.50;46.10;;;;;;474343;251;1197;-53
2022/10/28 09:55:30;;;;;;;;;;;23.40;46.10;;;;;;474422;251;1257;-53
2022/10/28 09:57:30;;;;;;;;;;;23.50;46.20;;;;;;474520;251;2086;-53
2022/10/28 09:59:32;;;;;;;;;;;23.50;46.10;;;;;;474171;251;1256;-53
2022/10/28 10:01:33;;;;;;;;;;;23.50;46.10;;;;;;474307;251;2196;-53
2022/10/28 10:03:34;;;;;;;;;;;23.50;46.10;;;;;;474112;251;1278;-53
2022/10/28 10:05:36;;;;;;;;;;;23.50;46.20;;;;;;474173;251;1201;-52
2022/10/28 10:07:37;;;;;;;;;;;23.50;46.10;;;;;;474065;251;1327;-52
2022/10/28 10:09:38;;;;;;;;;;;23.50;46.20;;;;;;474089;251;1208;-53
2022/10/28 10:11:40;;;;;;;;;;;23.50;46.20;;;;;;474260;251;1196;-53
2022/10/28 10:13:41;;;;;;;;;;;23.40;46.20;;;;;;474180;251;1190;-53
2022/10/28 10:15:42;;;;;;;;;;;23.50;46.20;;;;;;474174;251;1193;-52
2022/10/28 10:17:44;;;;;;;;;;;23.40;46.20;;;;;;474080;251;1352;-52
2022/10/28 10:19:45;;;;;;;;;;;23.50;46.30;;;;;;474155;251;1352;-53
2022/10/28 10:21:46;;;;;;;;;;;23.40;46.20;;;;;;474697;251;2200;-52
2022/10/28 10:23:47;;;;;;;;;;;23.50;46.30;;;;;;474622;251;1051;-53
2022/10/28 10:25:49;;;;;;;;;;;23.40;46.20;;;;;;474112;251;1317;-53
2022/10/28 10:27:50;;;;;;;;;;;23.50;46.20;;;;;;474044;251;1380;-53
2022/10/28 10:29:51;;;;;;;;;;;23.50;46.30;;;;;;474439;251;1200;-53
2022/10/28 10:31:53;;;;;;;;;;;23.50;46.30;;;;;;474331;251;1063;-53
2022/10/28 10:33:54;;;;;;;;;;;23.50;46.30;;;;;;474726;251;1125;-53
2022/10/28 10:35:55;;;;;;;;;;;23.50;46.30;;;;;;474291;251;1213;-53
2022/10/28 10:37:57;;;;;;;;;;;23.50;46.30;;;;;;473993;251;1383;-53
2022/10/28 10:39:58;;;;;;;;;;;23.50;46.20;;;;;;474227;251;1323;-53
2022/10/28 10:41:59;;;;;;;;;;;23.50;46.30;;;;;;474277;251;2170;-53
2022/10/28 10:44:01;;;;;;;;;;;23.50;46.40;;;;;;474088;251;1309;-53
2022/10/28 10:46:02;;;;;;;;;;;23.50;46.30;;;;;;474114;251;1236;-52
2022/10/28 10:48:03;;;;;;;;;;;23.50;46.40;;;;;;474081;251;1288;-52
2022/10/28 10:50:05;;;;;;;;;;;23.40;46.30;;;;;;474057;251;1500;-52
2022/10/28 10:52:06;;;;;;;;;;;23.50;46.30;;;;;;474211;251;1324;-53
2022/10/28 10:54:07;;;;;;;;;;;23.50;46.40;;;;;;474261;251;1283;-53
2022/10/28 10:56:09;;;;;;;;;;;23.50;46.40;;;;;;474091;251;1281;-52
2022/10/28 10:58:10;;;;;;;;;;;23.50;46.30;;;;;;474161;251;1200;-53
2022/10/28 11:00:11;;;;;;;;;;;23.50;46.40;;;;;;474063;251;1162;-53
2022/10/28 11:02:13;;;;;;;;;;;23.50;46.30;;;;;;474026;251;2134;-53
2022/10/28 11:04:14;;;;;;;;;;;23.50;46.40;;;;;;473992;251;1178;-53
2022/10/28 11:06:15;;;;;;;;;;;23.50;46.40;;;;;;473587;251;1224;-52
2022/10/28 11:08:17;;;;;;;;;;;23.50;46.40;;;;;;474003;251;1370;-53
2022/10/28 11:10:18;;;;;;;;;;;23.50;46.40;;;;;;474186;251;1351;-53
2022/10/28 11:12:20;;;;;;;;;;;23.50;46.40;;;;;;474306;251;1209;-53
2022/10/28 11:14:21;;;;;;;;;;;23.50;46.40;;;;;;474277;251;1088;-53
2022/10/28 11:16:22;;;;;;;;;;;23.50;46.40;;;;;;474426;251;1234;-53
2022/10/28 11:18:24;;;;;;;;;;;23.50;46.40;;;;;;474743;251;1236;-53
2022/10/28 11:20:26;;;;;;;;;;;23.50;46.50;;;;;;474438;251;2201;-53
2022/10/28 11:22:26;;;;;;;;;;;23.50;46.50;;;;;;474386;251;2054;-53
2022/10/28 11:24:28;;;;;;;;;;;23.50;46.50;;;;;;474400;251;1327;-53
2022/10/28 11:26:29;;;;;;;;;;;23.50;46.50;;;;;;474512;251;1261;-52
2022/10/28 11:28:32;;;;;;;;;;;23.50;46.50;;;;;;474267;251;1369;-52
2022/10/28 11:30:31;;;;;;;;;;;23.50;46.50;;;;;;474457;251;2013;-53
2022/10/28 11:32:33;;;;;;;;;;;23.60;46.50;;;;;;474423;251;1217;-53
2022/10/28 11:34:34;;;;;;;;;;;23.50;46.40;;;;;;474389;251;1269;-52
2022/10/28 11:36:35;;;;;;;;;;;23.50;46.50;;;;;;474434;251;1294;-53
2022/10/28 11:38:37;;;;;;;;;;;23.50;46.60;;;;;;474313;251;1415;-53
2022/10/28 11:40:38;;;;;;;;;;;23.50;46.60;;;;;;474393;251;2165;-53
2022/10/28 11:42:39;;;;;;;;;;;23.50;46.60;;;;;;474406;251;1243;-53
2022/10/28 11:44:41;;;;;;;;;;;23.50;46.70;;;;;;474435;251;1147;-53
2022/10/28 11:46:42;;;;;;;;;;;23.50;46.70;;;;;;474459;251;1340;-53
2022/10/28 11:48:43;;;;;;;;;;;23.50;46.70;;;;;;474566;251;1145;-53
2022/10/28 11:50:45;;;;;;;;;;;23.50;46.70;;;;;;474420;251;1212;-53
2022/10/28 11:52:46;;;;;;;;;;;23.50;46.70;;;;;;474649;251;1108;-53
2022/10/28 11:54:47;;;;;;;;;;;23.50;46.60;;;;;;474901;251;1150;-53
2022/10/28 11:56:49;;;;;;;;;;;23.50;46.60;;;;;;474704;251;1233;-53